Time;durP1;ratioP1;P1;durP2;ratioP2;P2;SDS_P1;SDS_P2;PMS_P1;PMS_P2;Temp;Humidity;BMP_temperature;BMP_pressure;BME280_temperature;BME280_humidity;BME280_pressure;Samples;Min_cycle;Max_cycle;Signal;HPM_P1;HPM_P2
2021/12/27 00:01:54;;;;;;;6.97;4.95;;;4.70;75.10;;;;;;5021136;28;20045;-85
2021/12/27 00:04:20;;;;;;;8.18;5.68;;;4.70;75.10;;;;;;5037822;28;20105;-87
2021/12/27 00:06:46;;;;;;;6.75;5.28;;;4.70;75.10;;;;;;5021458;28;20049;-85
2021/12/27 00:09:11;;;;;;;7.53;5.05;;;4.70;75.10;;;;;;5005350;28;20481;-85
2021/12/27 00:11:39;;;;;;;7.68;5.50;;;4.70;75.10;;;;;;5021902;28;20079;-87
2021/12/27 00:14:05;;;;;;;7.47;4.95;;;4.70;75.10;;;;;;5038133;28;20064;-85
2021/12/27 00:16:31;;;;;;;6.43;4.75;;;4.70;75.10;;;;;;5022551;28;20060;-85
2021/12/27 00:18:57;;;;;;;7.25;5.25;;;4.70;75.10;;;;;;5038786;28;20029;-85
2021/12/27 00:21:23;;;;;;;6.97;5.05;;;4.70;75.10;;;;;;5038013;28;20036;-85
2021/12/27 00:23:49;;;;;;;7.45;5.30;;;4.70;75.10;;;;;;5021587;28;20032;-86
2021/12/27 00:26:15;;;;;;;7.22;5.22;;;4.70;75.10;;;;;;5038162;28;20049;-85
2021/12/27 00:28:41;;;;;;;7.95;5.45;;;4.70;75.10;;;;;;5038632;28;20583;-86
2021/12/27 00:31:06;;;;;;;6.60;5.13;;;4.70;75.10;;;;;;5055347;28;20068;-86
2021/12/27 00:33:32;;;;;;;7.43;5.20;;;4.70;75.10;;;;;;5054003;28;20102;-85
2021/12/27 00:35:59;;;;;;;7.13;5.13;;;4.70;75.10;;;;;;5021194;28;20028;-86
2021/12/27 00:38:25;;;;;;;6.40;4.90;;;4.70;75.10;;;;;;5037676;28;20025;-85
2021/12/27 00:40:51;;;;;;;6.45;4.75;;;4.70;75.10;;;;;;5054328;28;20477;-85
2021/12/27 00:43:18;;;;;;;6.43;4.55;;;4.70;75.10;;;;;;5021236;28;20039;-85
2021/12/27 00:45:44;;;;;;;7.43;5.38;;;4.80;75.20;;;;;;5037947;28;20032;-85
2021/12/27 00:48:10;;;;;;;6.75;5.00;;;4.80;75.20;;;;;;5004714;28;20033;-85
2021/12/27 00:50:37;;;;;;;7.05;5.25;;;4.80;75.20;;;;;;5037667;28;20037;-85
2021/12/27 00:53:03;;;;;;;8.23;5.40;;;4.80;75.20;;;;;;5054163;28;20020;-85
2021/12/27 00:55:28;;;;;;;6.85;4.95;;;4.80;75.20;;;;;;5038145;28;20068;-86
2021/12/27 00:57:54;;;;;;;7.47;4.82;;;4.80;75.20;;;;;;5020913;28;20107;-85
2021/12/27 01:00:23;;;;;;;6.43;4.47;;;4.80;75.20;;;;;;5055322;28;20398;-85
2021/12/27 01:02:49;;;;;;;6.97;4.93;;;4.80;75.20;;;;;;5020861;28;20028;-87
2021/12/27 01:05:16;;;;;;;6.47;5.03;;;4.80;75.20;;;;;;5037705;28;20124;-87
2021/12/27 01:07:43;;;;;;;6.55;4.95;;;4.90;75.20;;;;;;5053622;28;20042;-86
2021/12/27 01:17:48;;;;;;;6.47;4.82;;;4.80;75.20;;;;;;5053606;28;20029;-84
2021/12/27 01:20:21;;;;;;;6.32;4.65;;;4.80;75.20;;;;;;5036496;28;20083;-84
2021/12/27 01:22:47;;;;;;;6.47;4.55;;;4.90;75.30;;;;;;5053695;28;20025;-85
2021/12/27 01:25:13;;;;;;;7.05;4.97;;;4.90;75.20;;;;;;5037009;28;20103;-86
2021/12/27 01:27:41;;;;;;;6.93;5.05;;;4.90;75.20;;;;;;5053611;28;20029;-86
2021/12/27 01:30:10;;;;;;;8.05;4.85;;;4.90;75.30;;;;;;5053641;28;20039;-86
2021/12/27 01:32:43;;;;;;;6.40;4.75;;;4.90;75.30;;;;;;5053706;28;20021;-85
2021/12/27 01:35:09;;;;;;;6.68;5.07;;;4.90;75.20;;;;;;5021449;28;20033;-86
2021/12/27 01:37:34;;;;;;;7.00;5.10;;;4.90;75.20;;;;;;5036736;28;20017;-85
2021/12/27 01:40:01;;;;;;;6.18;4.10;;;4.90;75.20;;;;;;5036884;28;20044;-85
2021/12/27 01:42:27;;;;;;;6.72;4.90;;;4.90;75.30;;;;;;5037321;28;20025;-85
2021/12/27 01:44:53;;;;;;;6.95;4.93;;;4.90;75.20;;;;;;5053202;28;20033;-86
2021/12/27 01:47:19;;;;;;;6.65;4.85;;;4.90;75.20;;;;;;5036890;28;20044;-85
2021/12/27 01:49:45;;;;;;;7.05;4.88;;;4.90;75.20;;;;;;5036723;28;20043;-86
2021/12/27 01:52:11;;;;;;;6.70;4.90;;;4.90;75.20;;;;;;5036675;28;20025;-85
2021/12/27 01:54:37;;;;;;;7.53;5.18;;;4.90;75.20;;;;;;5053281;28;20516;-86
2021/12/27 01:57:04;;;;;;;6.82;4.78;;;4.90;75.20;;;;;;5020858;28;20029;-85
2021/12/27 01:59:30;;;;;;;7.32;4.97;;;4.90;75.20;;;;;;5020793;28;20124;-86
2021/12/27 02:01:56;;;;;;;6.57;5.13;;;5.00;75.30;;;;;;5036847;28;20037;-85
2021/12/27 02:04:22;;;;;;;6.90;4.80;;;4.90;75.20;;;;;;5036738;28;20060;-85
2021/12/27 02:06:48;;;;;;;7.18;4.93;;;5.00;75.30;;;;;;5003979;28;20025;-85
2021/12/27 02:09:15;;;;;;;8.70;6.18;;;5.00;75.30;;;;;;5021004;28;20136;-85
2021/12/27 02:11:41;;;;;;;7.00;4.90;;;5.00;75.30;;;;;;5021378;28;20037;-85
2021/12/27 02:14:08;;;;;;;7.28;4.97;;;5.00;75.30;;;;;;5021487;28;20110;-86
2021/12/27 02:16:36;;;;;;;7.22;4.97;;;5.00;75.30;;;;;;5021733;28;20025;-85
2021/12/27 02:19:05;;;;;;;7.03;4.70;;;5.00;75.30;;;;;;5037194;28;20033;-85
2021/12/27 02:21:30;;;;;;;6.65;4.88;;;5.00;75.30;;;;;;5036995;28;20048;-86
2021/12/27 02:23:57;;;;;;;6.93;5.15;;;5.00;75.30;;;;;;5020669;28;20025;-87
2021/12/27 02:26:23;;;;;;;6.57;5.03;;;5.00;75.30;;;;;;5022308;28;20485;-84
2021/12/27 02:28:49;;;;;;;6.30;4.53;;;5.00;75.20;;;;;;5058866;28;20027;-85
2021/12/27 02:31:17;;;;;;;6.60;4.63;;;5.00;75.80;;;;;;5024273;28;20037;-85
2021/12/27 02:33:43;;;;;;;6.90;4.72;;;5.00;75.20;;;;;;5041389;28;20029;-85
2021/12/27 02:36:11;;;;;;;7.38;4.95;;;5.00;75.20;;;;;;5040665;28;20017;-84
2021/12/27 02:38:40;;;;;;;7.10;4.88;;;5.00;75.30;;;;;;5040421;28;20036;-85
2021/12/27 02:41:07;;;;;;;6.35;4.45;;;5.00;75.30;;;;;;5058434;28;20057;-85
2021/12/27 02:43:33;;;;;;;6.25;4.57;;;5.00;75.20;;;;;;5040453;28;20052;-85
2021/12/27 02:46:05;;;;;;;6.10;4.55;;;5.00;75.20;;;;;;5023883;28;20036;-85
2021/12/27 02:48:34;;;;;;;7.57;5.47;;;5.10;75.30;;;;;;5040160;28;20037;-85
2021/12/27 02:51:00;;;;;;;6.75;5.32;;;5.10;75.30;;;;;;5057535;28;20078;-86
2021/12/27 02:53:26;;;;;;;6.80;5.00;;;5.10;75.30;;;;;;5040174;28;20068;-86
2021/12/27 02:55:55;;;;;;;6.75;5.03;;;5.10;75.30;;;;;;5023914;28;20500;-85
2021/12/27 02:58:22;;;;;;;7.25;5.05;;;5.10;75.30;;;;;;5056857;28;20037;-86
2021/12/27 03:00:58;;;;;;;7.55;5.15;;;5.10;75.30;;;;;;5056219;28;20033;-85
2021/12/27 03:03:24;;;;;;;7.10;5.38;;;5.10;75.30;;;;;;5056265;28;20151;-85
2021/12/27 03:05:51;;;;;;;6.13;4.53;;;5.10;75.30;;;;;;5039725;28;20043;-86
2021/12/27 03:08:17;;;;;;;6.97;5.50;;;5.10;75.30;;;;;;5022849;28;20028;-85
2021/12/27 03:10:46;;;;;;;6.40;4.70;;;5.10;75.30;;;;;;5023086;28;20056;-85
2021/12/27 03:13:21;;;;;;;7.88;5.18;;;5.10;75.30;;;;;;5039481;28;20067;-86
2021/12/27 03:15:53;;;;;;;6.90;5.03;;;5.10;75.30;;;;;;5055758;28;20506;-85
2021/12/27 03:18:19;;;;;;;6.03;4.53;;;5.10;75.30;;;;;;5040021;28;20048;-85
2021/12/27 03:20:45;;;;;;;7.25;5.07;;;5.10;75.30;;;;;;5055526;28;20029;-85
2021/12/27 03:23:11;;;;;;;6.72;4.55;;;5.10;75.30;;;;;;5039028;28;20037;-85
2021/12/27 03:25:37;;;;;;;6.63;4.75;;;5.10;75.30;;;;;;5038955;28;20527;-85
2021/12/27 03:28:03;;;;;;;6.63;5.25;;;5.10;75.30;;;;;;5039745;28;20115;-88
2021/12/27 03:30:29;;;;;;;6.90;4.88;;;5.10;75.30;;;;;;5039877;28;20029;-85
2021/12/27 03:32:55;;;;;;;5.72;4.22;;;5.20;75.30;;;;;;5056304;28;20033;-86
2021/12/27 03:35:34;;;;;;;6.80;4.97;;;5.20;75.30;;;;;;5056124;28;20102;-85
2021/12/27 03:38:02;;;;;;;6.90;4.75;;;5.20;75.30;;;;;;5038209;28;20021;-85
2021/12/27 03:40:31;;;;;;;6.63;4.72;;;5.20;75.30;;;;;;5055781;28;20144;-85
2021/12/27 03:42:57;;;;;;;6.15;4.53;;;5.20;75.30;;;;;;5055764;28;20029;-85
2021/12/27 03:45:24;;;;;;;6.40;4.38;;;5.20;75.30;;;;;;5038849;28;20047;-85
2021/12/27 03:47:50;;;;;;;6.03;4.53;;;5.20;75.30;;;;;;5055701;28;20029;-83
2021/12/27 03:50:17;;;;;;;6.35;4.72;;;5.20;75.30;;;;;;5038628;28;20029;-85
2021/12/27 03:52:43;;;;;;;7.43;5.30;;;5.20;75.30;;;;;;5039342;28;20433;-85
2021/12/27 03:55:10;;;;;;;6.95;4.88;;;5.20;75.30;;;;;;5055682;28;20048;-85
2021/12/27 03:57:38;;;;;;;6.07;4.45;;;5.20;75.30;;;;;;5055223;28;20032;-85
2021/12/27 04:01:00;;;;;;;6.22;4.50;;;5.20;75.30;;;;;;5040457;28;20051;-87
2021/12/27 04:02:59;;;;;;;6.53;4.82;;;5.20;75.30;;;;;;5035019;28;20037;-85
2021/12/27 04:05:26;;;;;;;6.85;4.95;;;5.30;75.30;;;;;;5023317;28;20025;-86
2021/12/27 04:08:00;;;;;;;7.10;4.97;;;5.20;75.20;;;;;;5039813;28;20036;-86
2021/12/27 04:10:28;;;;;;;6.38;4.80;;;5.30;75.30;;;;;;5055246;28;20037;-85
2021/12/27 04:12:54;;;;;;;6.03;4.43;;;5.20;75.30;;;;;;5038554;28;20075;-86
2021/12/27 04:15:19;;;;;;;6.80;4.63;;;5.30;75.30;;;;;;5022480;28;20033;-86
2021/12/27 04:17:45;;;;;;;6.38;4.85;;;5.30;75.30;;;;;;5022074;28;20111;-85
2021/12/27 04:20:11;;;;;;;7.32;5.15;;;5.30;75.30;;;;;;5038123;28;20037;-85
2021/12/27 04:22:37;;;;;;;6.85;4.90;;;5.30;75.30;;;;;;5022873;28;20108;-87
2021/12/27 04:25:04;;;;;;;6.75;4.97;;;5.30;75.30;;;;;;5053157;28;20056;-85
2021/12/27 04:27:29;;;;;;;6.47;4.75;;;5.30;75.30;;;;;;5005560;28;20025;-85
2021/12/27 04:29:55;;;;;;;6.90;5.07;;;5.30;75.30;;;;;;5005833;28;20044;-85
2021/12/27 04:32:22;;;;;;;5.68;4.30;;;5.30;75.20;;;;;;5022234;28;20434;-84
2021/12/27 04:34:48;;;;;;;6.22;4.82;;;5.30;75.30;;;;;;5021727;28;20025;-84
2021/12/27 04:37:14;;;;;;;7.85;4.88;;;5.30;75.30;;;;;;5037613;28;20434;-84
2021/12/27 04:39:40;;;;;;;6.50;4.85;;;5.30;75.30;;;;;;5005089;28;20040;-85
2021/12/27 04:42:07;;;;;;;6.82;4.53;;;5.30;75.30;;;;;;4989241;28;20036;-85
2021/12/27 04:44:33;;;;;;;6.43;4.35;;;5.40;75.30;;;;;;5037809;28;20098;-85
2021/12/27 04:46:59;;;;;;;6.75;4.18;;;5.40;75.30;;;;;;5037726;28;20017;-85
2021/12/27 04:49:25;;;;;;;7.32;5.03;;;5.40;75.30;;;;;;5037417;28;20087;-86
2021/12/27 04:51:51;;;;;;;6.53;4.90;;;5.40;75.30;;;;;;5021247;28;20025;-85
2021/12/27 04:54:17;;;;;;;7.10;4.70;;;5.40;75.30;;;;;;5005137;28;20075;-86
2021/12/27 04:56:42;;;;;;;6.40;4.63;;;5.40;75.30;;;;;;5021524;28;20390;-85
2021/12/27 04:59:08;;;;;;;7.00;5.00;;;5.40;75.30;;;;;;5021199;28;20033;-88
2021/12/27 05:01:34;;;;;;;6.28;4.75;;;5.40;75.20;;;;;;5020871;28;20040;-86
2021/12/27 05:04:00;;;;;;;7.35;5.13;;;5.40;75.30;;;;;;5020736;28;20232;-85
2021/12/27 05:06:27;;;;;;;7.35;5.03;;;5.40;75.20;;;;;;5004813;28;20025;-85
2021/12/27 05:08:53;;;;;;;7.32;5.43;;;5.40;75.20;;;;;;5037604;28;20119;-87
2021/12/27 05:11:20;;;;;;;7.38;5.20;;;5.40;75.20;;;;;;5004593;28;20029;-85
2021/12/27 05:13:46;;;;;;;7.15;5.18;;;5.40;75.20;;;;;;5021247;28;20063;-85
2021/12/27 05:16:12;;;;;;;6.63;5.05;;;5.40;75.20;;;;;;5037353;28;20032;-86
2021/12/27 05:18:38;;;;;;;7.30;5.22;;;5.50;75.30;;;;;;5020857;28;20029;-85
2021/12/27 05:21:04;;;;;;;7.65;4.97;;;5.40;75.20;;;;;;5020589;28;20243;-85
2021/12/27 05:23:33;;;;;;;7.38;4.88;;;5.50;75.30;;;;;;5037413;28;20033;-87
2021/12/27 05:26:00;;;;;;;6.35;4.55;;;5.50;75.30;;;;;;5020959;28;20048;-85
2021/12/27 05:28:26;;;;;;;6.63;4.70;;;5.50;75.30;;;;;;5055019;28;20028;-85
2021/12/27 05:30:52;;;;;;;6.13;4.47;;;5.50;75.30;;;;;;5037308;28;20470;-84
2021/12/27 05:33:19;;;;;;;5.97;4.88;;;5.50;75.30;;;;;;5021266;28;20032;-87
2021/12/27 05:35:46;;;;;;;6.32;4.93;;;5.50;75.30;;;;;;5020804;28;20116;-85
2021/12/27 05:38:13;;;;;;;6.15;4.65;;;5.50;75.30;;;;;;5054874;28;20075;-87
2021/12/27 05:40:39;;;;;;;8.13;4.85;;;5.50;75.30;;;;;;5020829;28;20060;-85
2021/12/27 05:43:06;;;;;;;8.55;5.10;;;5.50;75.30;;;;;;4996880;28;20030;-85
2021/12/27 05:45:33;;;;;;;6.82;4.90;;;5.50;75.30;;;;;;5017116;28;20088;-85
2021/12/27 05:47:59;;;;;;;8.55;5.88;;;5.50;75.20;;;;;;5016931;28;20096;-84
2021/12/27 05:50:25;;;;;;;7.25;5.32;;;5.50;75.30;;;;;;5003238;28;20038;-84
2021/12/27 05:52:51;;;;;;;6.57;4.80;;;5.60;75.30;;;;;;5037103;28;20497;-85
2021/12/27 05:55:17;;;;;;;6.50;4.80;;;5.60;75.30;;;;;;5004497;28;20071;-85
2021/12/27 05:57:43;;;;;;;7.05;5.13;;;5.60;75.30;;;;;;5021110;28;20362;-84
2021/12/27 06:00:13;;;;;;;6.82;5.00;;;5.50;75.20;;;;;;5004456;28;20154;-85
2021/12/27 06:02:41;;;;;;;7.35;5.07;;;5.60;75.30;;;;;;5040981;28;20355;-86
2021/12/27 06:05:07;;;;;;;7.28;5.15;;;5.60;75.30;;;;;;5024197;28;20108;-84
2021/12/27 06:07:33;;;;;;;7.07;5.40;;;5.60;75.30;;;;;;5040447;28;20594;-85
2021/12/27 06:09:59;;;;;;;6.78;5.30;;;5.60;75.20;;;;;;5007344;28;20049;-87
2021/12/27 06:12:25;;;;;;;7.30;5.30;;;5.60;75.30;;;;;;5040394;28;20066;-85
2021/12/27 06:14:51;;;;;;;8.52;5.57;;;5.60;75.20;;;;;;5023991;28;20475;-85
2021/12/27 06:17:17;;;;;;;7.93;5.38;;;5.60;75.90;;;;;;5024061;28;20091;-85
2021/12/27 06:19:43;;;;;;;6.88;4.70;;;5.60;75.20;;;;;;5024603;28;20025;-85
2021/12/27 06:22:09;;;;;;;7.15;5.00;;;5.60;75.20;;;;;;5024171;28;20370;-85
2021/12/27 06:24:35;;;;;;;7.50;5.60;;;5.70;75.30;;;;;;5023888;28;20578;-85
2021/12/27 06:27:00;;;;;;;8.50;5.60;;;5.70;75.20;;;;;;5023726;28;20060;-84
2021/12/27 06:29:26;;;;;;;8.15;5.45;;;5.70;75.30;;;;;;5023788;28;20072;-85
2021/12/27 06:31:52;;;;;;;7.68;5.60;;;5.70;75.20;;;;;;5023540;28;20062;-84
2021/12/27 06:34:18;;;;;;;7.45;5.28;;;5.70;75.30;;;;;;5024005;28;20025;-85
2021/12/27 06:36:44;;;;;;;7.38;5.15;;;5.70;75.30;;;;;;5007244;28;20492;-84
2021/12/27 06:39:10;;;;;;;7.53;5.35;;;5.70;75.30;;;;;;5006985;28;20025;-86
2021/12/27 06:41:37;;;;;;;6.60;5.13;;;5.70;75.30;;;;;;5023304;28;20051;-85
2021/12/27 06:44:03;;;;;;;7.25;4.93;;;5.70;75.20;;;;;;5023903;28;20033;-85
2021/12/27 06:46:29;;;;;;;7.85;5.30;;;5.70;75.20;;;;;;5057235;28;20108;-84
2021/12/27 06:48:55;;;;;;;7.95;5.78;;;5.70;75.20;;;;;;5006993;28;20517;-87
2021/12/27 06:51:22;;;;;;;6.95;5.13;;;5.70;75.20;;;;;;5057194;28;20112;-85
2021/12/27 06:53:47;;;;;;;7.15;5.50;;;5.80;75.30;;;;;;5006986;28;20025;-86
2021/12/27 06:56:14;;;;;;;7.25;5.15;;;5.80;75.30;;;;;;5039512;28;20479;-86
2021/12/27 06:58:39;;;;;;;7.47;5.25;;;5.80;75.30;;;;;;5023563;28;20373;-85
2021/12/27 07:01:05;;;;;;;7.07;5.07;;;5.80;75.30;;;;;;5039278;28;20041;-85
2021/12/27 07:03:31;;;;;;;6.97;5.00;;;5.80;75.20;;;;;;5022841;28;20041;-85
2021/12/27 07:05:57;;;;;;;7.00;5.03;;;5.80;75.20;;;;;;5039106;28;20029;-85
2021/12/27 07:08:23;;;;;;;6.85;4.90;;;5.80;75.30;;;;;;5023326;28;20025;-85
2021/12/27 07:10:50;;;;;;;7.43;5.28;;;5.80;75.20;;;;;;5022857;28;20454;-85
2021/12/27 07:13:16;;;;;;;6.75;5.55;;;5.80;75.20;;;;;;5038995;28;20025;-85
2021/12/27 07:15:42;;;;;;;7.40;5.40;;;5.80;75.20;;;;;;5023253;28;20040;-85
2021/12/27 07:18:09;;;;;;;7.35;5.30;;;5.80;75.20;;;;;;5022448;28;20032;-85
2021/12/27 07:20:35;;;;;;;7.50;5.32;;;5.90;75.30;;;;;;5022611;28;20086;-85
2021/12/27 07:23:06;;;;;;;8.38;5.55;;;5.90;75.30;;;;;;5039316;28;20017;-85
2021/12/27 07:25:32;;;;;;;7.47;5.40;;;5.90;75.30;;;;;;5022917;28;20469;-85
2021/12/27 07:27:58;;;;;;;8.02;5.53;;;5.90;75.30;;;;;;5023054;28;20037;-85
2021/12/27 07:30:25;;;;;;;7.53;5.30;;;5.90;75.30;;;;;;5022523;28;20039;-84
2021/12/27 07:32:50;;;;;;;7.18;5.32;;;5.90;75.30;;;;;;5038942;28;20037;-86
2021/12/27 07:35:17;;;;;;;7.65;5.68;;;5.90;75.30;;;;;;5039526;28;20075;-85
2021/12/27 07:37:42;;;;;;;7.22;5.22;;;5.90;75.20;;;;;;5006006;28;20485;-85
2021/12/27 07:40:10;;;;;;;7.38;5.63;;;5.90;75.20;;;;;;5057159;28;20032;-86
2021/12/27 07:42:36;;;;;;;8.75;5.93;;;5.90;75.20;;;;;;5005985;28;20060;-85
2021/12/27 07:45:04;;;;;;;7.07;5.43;;;5.90;75.20;;;;;;5023352;28;20033;-85
2021/12/27 07:47:30;;;;;;;7.30;5.22;;;5.90;75.20;;;;;;5022307;28;20033;-84
2021/12/27 07:49:56;;;;;;;8.13;5.65;;;6.00;75.30;;;;;;5022119;28;20082;-85
2021/12/27 07:52:22;;;;;;;6.90;5.55;;;6.00;75.30;;;;;;5039537;28;20036;-86
2021/12/27 07:54:48;;;;;;;7.60;5.38;;;6.00;75.30;;;;;;5022412;28;20029;-85
2021/12/27 07:57:15;;;;;;;7.72;5.82;;;6.00;75.30;;;;;;5038799;28;20025;-85
2021/12/27 07:59:42;;;;;;;7.82;5.78;;;6.00;75.30;;;;;;5022704;28;20033;-85
2021/12/27 08:02:10;;;;;;;6.72;5.25;;;6.00;75.30;;;;;;5022591;28;20068;-85
2021/12/27 08:04:37;;;;;;;8.25;6.30;;;6.00;75.30;;;;;;5021846;28;20028;-85
2021/12/27 08:07:04;;;;;;;6.65;5.00;;;6.00;75.30;;;;;;5038215;28;20112;-85
2021/12/27 08:09:29;;;;;;;7.55;5.57;;;6.00;75.30;;;;;;5021980;28;20074;-85
2021/12/27 08:11:55;;;;;;;8.27;5.60;;;6.00;75.20;;;;;;5022242;28;20036;-89
2021/12/27 08:14:21;;;;;;;7.50;5.95;;;6.10;75.30;;;;;;5038371;28;20131;-86
2021/12/27 08:16:48;;;;;;;8.10;6.10;;;6.10;75.30;;;;;;5038032;28;20036;-86
2021/12/27 08:19:13;;;;;;;8.20;5.90;;;6.10;75.30;;;;;;5022352;28;20029;-85
2021/12/27 08:21:40;;;;;;;8.05;5.70;;;6.10;75.30;;;;;;5021627;28;20095;-86
2021/12/27 08:24:07;;;;;;;8.15;5.32;;;6.10;75.30;;;;;;5021631;28;20029;-86
2021/12/27 08:26:33;;;;;;;7.15;5.18;;;6.10;75.30;;;;;;5004180;28;20049;-83
2021/12/27 08:29:02;;;;;;;7.50;5.80;;;6.10;75.20;;;;;;5021054;28;20033;-83
2021/12/27 08:31:28;;;;;;;6.97;5.53;;;6.10;75.20;;;;;;5021250;28;20037;-87
2021/12/27 08:33:54;;;;;;;8.30;5.88;;;6.10;75.20;;;;;;5021191;28;20062;-86
2021/12/27 08:36:20;;;;;;;7.65;5.68;;;6.20;75.20;;;;;;5037669;28;20025;-83
2021/12/27 08:38:50;;;;;;;7.85;5.70;;;6.10;75.20;;;;;;5020768;28;20021;-87
2021/12/27 08:41:17;;;;;;;6.95;5.63;;;6.20;75.30;;;;;;5037553;28;20037;-89
2021/12/27 08:43:44;;;;;;;7.55;5.43;;;6.20;75.30;;;;;;5037467;28;20021;-84
2021/12/27 08:46:11;;;;;;;7.82;5.75;;;6.20;75.30;;;;;;5020672;28;20437;-84
2021/12/27 08:48:37;;;;;;;7.93;5.50;;;6.20;75.20;;;;;;5004655;28;20025;-83
2021/12/27 08:51:03;;;;;;;8.20;5.88;;;6.20;75.30;;;;;;5021458;28;20025;-84
2021/12/27 08:53:29;;;;;;;8.45;6.10;;;6.20;75.20;;;;;;5020179;28;20035;-82
2021/12/27 08:55:55;;;;;;;7.32;5.35;;;6.20;75.20;;;;;;5020002;28;20040;-82
2021/12/27 08:58:22;;;;;;;7.55;5.50;;;6.20;75.20;;;;;;5019969;28;20033;-86
2021/12/27 09:00:48;;;;;;;7.13;5.30;;;6.30;75.20;;;;;;5020565;28;20041;-82
2021/12/27 09:03:14;;;;;;;7.10;5.45;;;6.30;75.20;;;;;;5019581;28;20031;-82
2021/12/27 09:05:40;;;;;;;6.45;5.18;;;6.30;75.20;;;;;;5036202;28;20024;-83
2021/12/27 09:08:06;;;;;;;7.97;5.55;;;6.30;75.20;;;;;;5019777;28;20052;-82
2021/12/27 09:10:33;;;;;;;7.05;5.35;;;6.30;75.20;;;;;;5020204;28;20037;-82
2021/12/27 09:13:00;;;;;;;6.40;5.15;;;6.30;75.20;;;;;;5020022;28;20028;-83
2021/12/27 09:15:30;;;;;;;8.38;5.47;;;6.30;75.20;;;;;;5020863;28;20124;-82
2021/12/27 09:17:56;;;;;;;6.68;5.22;;;6.30;75.20;;;;;;5020214;28;20067;-83
2021/12/27 09:20:24;;;;;;;6.90;5.07;;;6.30;75.10;;;;;;5019844;28;20505;-84
2021/12/27 09:22:50;;;;;;;7.50;5.32;;;6.30;75.10;;;;;;5036570;28;20033;-84
2021/12/27 09:25:16;;;;;;;7.25;5.47;;;6.30;75.10;;;;;;5036393;28;20060;-84
2021/12/27 09:27:42;;;;;;;7.60;5.43;;;6.40;75.10;;;;;;5020345;28;20488;-83
2021/12/27 09:30:09;;;;;;;6.45;4.97;;;6.40;75.10;;;;;;5019847;28;20025;-83
2021/12/27 09:32:35;;;;;;;7.78;5.25;;;6.40;75.10;;;;;;5036443;28;20060;-84
2021/12/27 09:35:01;;;;;;;6.80;4.70;;;6.40;75.10;;;;;;5003332;28;20068;-84
2021/12/27 09:37:27;;;;;;;6.35;4.88;;;6.40;75.10;;;;;;5003271;28;20037;-82
2021/12/27 09:39:53;;;;;;;6.53;5.00;;;6.40;75.00;;;;;;5018790;28;20021;-79
2021/12/27 09:42:25;;;;;;;7.78;5.28;;;6.40;75.00;;;;;;5036245;28;20037;-84
2021/12/27 09:44:53;;;;;;;7.05;4.80;;;6.40;75.00;;;;;;5020375;28;20085;-85
2021/12/27 09:47:19;;;;;;;7.22;5.47;;;6.50;75.10;;;;;;5036674;28;20070;-85
2021/12/27 09:49:47;;;;;;;6.78;5.03;;;6.40;75.00;;;;;;5020584;28;20462;-86
2021/12/27 09:52:13;;;;;;;6.05;4.63;;;6.50;75.00;;;;;;5020110;28;20036;-87
2021/12/27 09:54:39;;;;;;;6.90;4.80;;;6.50;75.10;;;;;;5004183;28;20032;-88
2021/12/27 09:57:06;;;;;;;5.88;4.63;;;6.50;75.00;;;;;;5019752;28;20121;-87
2021/12/27 09:59:32;;;;;;;6.53;5.00;;;6.50;75.00;;;;;;5003885;28;20037;-86
2021/12/27 10:01:58;;;;;;;7.00;5.10;;;6.50;75.00;;;;;;5036052;28;20045;-85
2021/12/27 10:04:23;;;;;;;6.32;4.50;;;6.60;75.00;;;;;;5020075;28;20032;-82
2021/12/27 10:06:51;;;;;;;6.70;5.05;;;6.60;75.00;;;;;;5019939;28;20025;-87
2021/12/27 10:09:18;;;;;;;6.82;5.00;;;6.60;75.00;;;;;;5020218;28;20036;-87
2021/12/27 10:11:46;;;;;;;6.43;4.82;;;6.60;75.00;;;;;;5003735;28;20032;-86
2021/12/27 10:14:13;;;;;;;6.75;4.68;;;6.60;75.00;;;;;;5036642;28;20056;-88
2021/12/27 10:16:46;;;;;;;6.50;4.97;;;6.60;75.00;;;;;;5019785;28;20056;-82
2021/12/27 10:19:16;;;;;;;6.75;5.03;;;6.60;75.00;;;;;;5019808;28;20112;-84
2021/12/27 10:21:46;;;;;;;6.57;4.85;;;6.70;75.10;;;;;;5019777;28;20045;-84
2021/12/27 10:24:15;;;;;;;6.90;5.25;;;6.60;75.00;;;;;;5019648;28;20028;-84
2021/12/27 10:26:43;;;;;;;7.97;5.50;;;6.70;75.10;;;;;;5019703;28;20079;-84
2021/12/27 10:29:14;;;;;;;6.50;5.03;;;6.70;75.00;;;;;;5019449;28;20057;-83
2021/12/27 10:31:53;;;;;;;6.47;5.00;;;6.70;75.00;;;;;;5036777;28;20033;-84
2021/12/27 10:34:20;;;;;;;6.65;4.88;;;6.70;75.10;;;;;;5035701;28;20557;-85
2021/12/27 10:37:13;;;;;;;6.95;5.38;;;6.70;75.00;;;;;;5019099;28;20151;-84
2021/12/27 10:39:44;;;;;;;7.07;4.65;;;6.80;75.20;;;;;;5019432;28;20040;-83
2021/12/27 10:42:13;;;;;;;6.20;4.65;;;6.80;75.10;;;;;;5019061;28;20056;-83
2021/12/27 10:44:39;;;;;;;6.25;4.68;;;6.80;75.10;;;;;;5035706;28;20033;-85
2021/12/27 10:47:25;;;;;;;6.35;4.78;;;6.80;75.10;;;;;;5020431;28;20174;-83
2021/12/27 10:49:52;;;;;;;6.55;4.78;;;6.80;75.20;;;;;;5022676;28;20462;-85
2021/12/27 10:52:18;;;;;;;5.03;4.03;;;6.80;75.00;;;;;;5057493;28;20057;-83
2021/12/27 10:54:44;;;;;;;6.78;4.72;;;6.90;75.10;;;;;;5040045;28;20090;-84
2021/12/27 10:57:10;;;;;;;7.35;4.70;;;6.90;75.00;;;;;;5022836;28;20031;-88
2021/12/27 10:59:36;;;;;;;5.93;4.63;;;6.90;75.10;;;;;;5039023;28;20068;-83
2021/12/27 11:02:13;;;;;;;6.75;4.68;;;6.90;75.00;;;;;;5022166;28;20052;-84
2021/12/27 11:04:40;;;;;;;6.47;4.75;;;7.00;75.10;;;;;;5022550;28;20130;-86
2021/12/27 11:07:06;;;;;;;5.90;4.53;;;7.00;75.00;;;;;;5022422;28;20025;-85
2021/12/27 11:09:33;;;;;;;6.28;4.57;;;7.00;75.00;;;;;;5038715;28;20051;-84
2021/12/27 11:12:00;;;;;;;6.03;4.10;;;7.00;75.00;;;;;;5038913;28;20052;-85
2021/12/27 11:14:26;;;;;;;6.88;5.03;;;7.10;75.10;;;;;;5038968;28;20492;-84
2021/12/27 11:16:54;;;;;;;6.07;4.78;;;7.10;75.00;;;;;;5022369;28;20079;-85
2021/12/27 11:19:20;;;;;;;5.78;4.35;;;7.10;75.10;;;;;;5039355;28;20082;-82
2021/12/27 11:21:49;;;;;;;7.03;4.80;;;7.10;75.00;;;;;;5022554;28;20057;-83
2021/12/27 11:24:15;;;;;;;6.25;4.38;;;7.20;75.00;;;;;;5023551;28;20033;-85
2021/12/27 11:26:43;;;;;;;6.93;4.88;;;7.20;75.00;;;;;;5038416;28;20494;-85
2021/12/27 11:29:21;;;;;;;6.47;4.28;;;7.20;75.00;;;;;;5055670;28;20078;-84
2021/12/27 11:31:50;;;;;;;6.47;4.35;;;7.20;75.10;;;;;;5039009;28;20033;-84
2021/12/27 11:34:17;;;;;;;6.75;4.88;;;7.30;75.00;;;;;;5038648;28;20104;-89
2021/12/27 11:36:49;;;;;;;5.95;4.63;;;7.30;75.00;;;;;;5056358;28;20021;-84
2021/12/27 11:39:35;;;;;;;5.90;4.38;;;7.30;75.00;;;;;;5054943;28;20040;-85
2021/12/27 11:42:17;;;;;;;5.78;4.35;;;7.30;75.10;;;;;;5039185;28;20361;-85
2021/12/27 11:44:45;;;;;;;5.82;4.40;;;7.40;75.10;;;;;;5038564;28;20052;-84
2021/12/27 11:47:26;;;;;;;6.13;4.43;;;7.40;75.00;;;;;;5038292;28;20101;-83
2021/12/27 11:50:02;;;;;;;7.72;4.63;;;7.40;75.10;;;;;;5038137;28;20025;-83
2021/12/27 11:52:34;;;;;;;5.90;4.38;;;7.40;75.10;;;;;;5038389;28;20036;-85
2021/12/27 11:55:06;;;;;;;6.03;4.18;;;7.40;75.00;;;;;;5037542;28;20036;-87
2021/12/27 11:57:39;;;;;;;5.85;4.45;;;7.50;75.10;;;;;;5055271;28;20033;-82
2021/12/27 12:00:17;;;;;;;6.75;4.32;;;7.50;75.10;;;;;;5037085;28;20033;-83
2021/12/27 12:02:45;;;;;;;5.82;4.15;;;7.50;75.10;;;;;;5037747;28;20457;-85
2021/12/27 12:05:39;;;;;;;7.13;4.63;;;7.50;75.10;;;;;;5054813;28;20024;-85
2021/12/27 12:08:06;;;;;;;6.50;4.57;;;7.60;75.20;;;;;;5038396;28;20032;-86
2021/12/27 12:10:32;;;;;;;5.80;4.53;;;7.60;75.10;;;;;;5038288;28;20062;-84
2021/12/27 12:13:20;;;;;;;5.97;4.20;;;7.60;75.10;;;;;;5054492;28;20029;-84
2021/12/27 12:15:56;;;;;;;6.47;4.22;;;7.60;75.20;;;;;;5055596;28;20441;-84
2021/12/27 12:18:23;;;;;;;5.68;4.10;;;7.70;75.20;;;;;;5038139;28;20525;-84
2021/12/27 12:20:49;;;;;;;5.93;4.43;;;7.70;75.10;;;;;;5054208;28;20040;-84
2021/12/27 12:23:15;;;;;;;6.72;4.05;;;7.70;75.10;;;;;;5037823;28;20025;-84
2021/12/27 12:25:40;;;;;;;5.88;4.63;;;7.80;75.20;;;;;;5021005;28;20144;-86
2021/12/27 12:28:15;;;;;;;6.43;4.60;;;7.80;75.20;;;;;;5055358;28;20025;-85
2021/12/27 12:30:44;;;;;;;7.47;4.63;;;7.80;75.20;;;;;;5055373;28;20139;-84
2021/12/27 12:33:17;;;;;;;6.13;4.68;;;7.80;75.10;;;;;;5037623;28;20071;-85
2021/12/27 12:36:01;;;;;;;6.00;4.35;;;7.90;75.20;;;;;;5054347;28;20473;-84
2021/12/27 12:38:35;;;;;;;5.72;4.10;;;7.90;75.20;;;;;;5037692;28;20116;-83
2021/12/27 12:41:12;;;;;;;5.90;4.28;;;7.90;75.10;;;;;;5054357;28;20041;-83
2021/12/27 12:43:40;;;;;;;6.28;4.80;;;7.90;75.10;;;;;;5054852;28;20083;-85
2021/12/27 12:46:17;;;;;;;6.00;4.32;;;8.00;75.10;;;;;;5054158;28;20024;-84
2021/12/27 12:48:54;;;;;;;6.28;4.53;;;8.00;75.20;;;;;;5054227;28;20033;-84
2021/12/27 12:51:35;;;;;;;6.22;4.45;;;8.00;75.10;;;;;;5039320;28;20041;-84
2021/12/27 12:54:02;;;;;;;6.20;4.43;;;8.10;75.20;;;;;;5053840;28;20032;-85
2021/12/27 12:56:30;;;;;;;5.00;3.85;;;8.10;75.10;;;;;;5038323;28;20029;-84
2021/12/27 12:58:56;;;;;;;5.57;4.32;;;8.10;75.10;;;;;;5037432;28;20090;-84
2021/12/27 13:01:21;;;;;;;6.05;4.50;;;8.10;75.70;;;;;;5054351;28;20421;-84
2021/12/27 13:03:47;;;;;;;5.53;4.25;;;8.20;75.10;;;;;;5037946;28;20061;-86
2021/12/27 13:06:13;;;;;;;6.30;4.20;;;8.20;75.10;;;;;;5037786;28;20082;-84
2021/12/27 13:08:49;;;;;;;5.60;3.63;;;8.20;75.10;;;;;;5037601;28;20056;-83